Time;durP1;ratioP1;P1;durP2;ratioP2;P2;SDS_P1;SDS_P2;PMS_P1;PMS_P2;Temp;Humidity;BMP_temperature;BMP_pressure;BME280_temperature;BME280_humidity;BME280_pressure;Samples;Min_cycle;Max_cycle;Signal;HPM_P1;HPM_P2
2022/06/08 00:01:07;;;;;;;10.23;6.68;;;;;;;;;;5015085;28;20045;-69
2022/06/08 00:03:37;;;;;;;8.20;6.45;;;;;;;;;;5015361;28;20033;-68
2022/06/08 00:06:03;;;;;;;10.38;7.25;;;;;;;;;;5015337;28;20030;-69
2022/06/08 00:08:29;;;;;;;9.95;7.50;;;;;;;;;;5015191;28;20041;-69
2022/06/08 00:10:55;;;;;;;9.52;7.50;;;;;;;;;;5014987;28;20049;-69
2022/06/08 00:13:21;;;;;;;12.20;6.30;;;;;;;;;;5014882;28;20453;-68
2022/06/08 00:15:48;;;;;;;8.50;7.35;;;;;;;;;;5014721;28;20393;-68
2022/06/08 00:18:14;;;;;;;9.10;6.63;;;;;;;;;;5014925;28;20026;-69
2022/06/08 00:20:40;;;;;;;8.95;6.32;;;;;;;;;;5014671;28;20025;-68
2022/06/08 00:23:07;;;;;;;8.15;5.72;;;;;;;;;;5013588;28;20060;-68
2022/06/08 00:25:33;;;;;;;9.60;7.53;;;;;;;;;;5014536;28;20427;-68
2022/06/08 00:27:59;;;;;;;9.23;6.97;;;;;;;;;;5013209;28;20500;-69
2022/06/08 00:30:26;;;;;;;7.65;6.82;;;;;;;;;;5014546;28;20105;-68
2022/06/08 00:32:52;;;;;;;11.10;7.40;;;;;;;;;;5014611;28;20496;-69
2022/06/08 00:35:18;;;;;;;8.40;6.75;;;;;;;;;;5014698;28;20037;-69
2022/06/08 00:37:44;;;;;;;10.65;6.35;;;;;;;;;;5014462;28;20050;-69
2022/06/08 00:40:12;;;;;;;13.20;6.07;;;;;;;;;;5014500;28;20076;-68
2022/06/08 00:42:39;;;;;;;7.30;5.97;;;;;;;;;;5014671;28;20045;-68
2022/06/08 00:45:07;;;;;;;6.45;5.30;;;;;;;;;;5014198;28;20564;-68
2022/06/08 00:47:41;;;;;;;7.88;5.25;;;;;;;;;;5013641;28;20496;-69
2022/06/08 00:50:13;;;;;;;5.70;5.07;;;;;;;;;;5014130;28;20084;-68
2022/06/08 00:52:39;;;;;;;5.82;5.30;;;;;;;;;;5014367;28;20021;-68
2022/06/08 00:55:07;;;;;;;7.80;5.50;;;;;;;;;;5014307;28;20452;-68
2022/06/08 00:57:51;;;;;;;10.32;4.93;;;;;;;;;;5014100;28;20056;-69
2022/06/08 01:00:26;;;;;;;6.85;5.03;;;;;;;;;;5014024;28;20026;-68
2022/06/08 01:02:52;;;;;;;5.90;5.05;;;;;;;;;;5014331;28;20076;-68
2022/06/08 01:05:20;;;;;;;6.72;5.32;;;;;;;;;;5014481;28;20030;-69
2022/06/08 01:07:47;;;;;;;7.25;4.97;;;;;;;;;;5014034;28;20061;-68
2022/06/08 01:10:18;;;;;;;8.48;5.20;;;;;;;;;;5013991;28;20018;-68
2022/06/08 01:12:44;;;;;;;;;;;;;;;;;;5014202;28;20175;-68
2022/06/08 01:15:11;;;;;;;7.32;4.90;;;;;;;;;;5013907;28;19968;-69
2022/06/08 01:17:37;;;;;;;7.75;5.38;;;;;;;;;;5012691;28;20033;-69
2022/06/08 01:20:04;;;;;;;6.32;4.82;;;;;;;;;;5013722;28;20026;-69
2022/06/08 01:22:30;;;;;;;5.38;4.88;;;;;;;;;;5013742;28;20026;-68
2022/06/08 01:24:56;;;;;;;5.82;5.22;;;;;;;;;;5013577;28;20038;-69
2022/06/08 01:27:44;;;;;;;6.60;5.90;;;;;;;;;;5013417;28;20029;-69
2022/06/08 01:30:19;;;;;;;7.28;5.57;;;;;;;;;;5013833;28;20044;-68
2022/06/08 01:33:01;;;;;;;8.32;5.35;;;;;;;;;;5013639;28;20476;-68
2022/06/08 01:35:30;;;;;;;6.47;5.75;;;;;;;;;;5013725;28;20034;-68
2022/06/08 01:38:14;;;;;;;7.55;5.95;;;;;;;;;;5013489;28;20445;-68
2022/06/08 01:40:56;;;;;;;9.52;6.47;;;;;;;;;;5013376;28;20493;-69
2022/06/08 01:43:22;;;;;;;8.82;6.35;;;;;;;;;;5013410;28;20068;-68
2022/06/08 01:45:54;;;;;;;7.35;6.15;;;;;;;;;;5013172;28;20029;-69
2022/06/08 01:48:39;;;;;;;7.78;6.97;;;;;;;;;;5013225;28;20073;-69
2022/06/08 01:51:14;;;;;;;7.82;7.00;;;;;;;;;;5013280;28;20432;-68
2022/06/08 01:53:59;;;;;;;8.80;7.05;;;;;;;;;;5013342;28;20062;-69
2022/06/08 01:56:28;;;;;;;12.27;7.22;;;;;;;;;;5013125;28;20030;-68
2022/06/08 01:58:57;;;;;;;7.75;6.95;;;;;;;;;;5012331;28;20075;-69
2022/06/08 02:01:33;;;;;;;8.27;7.45;;;;;;;;;;5013220;28;20030;-69
2022/06/08 02:04:02;;;;;;;10.63;8.07;;;;;;;;;;5013456;28;20026;-68
2022/06/08 02:06:38;;;;;;;9.63;7.53;;;;;;;;;;5012999;28;20034;-68
2022/06/08 02:09:07;;;;;;;10.45;8.15;;;;;;;;;;5013017;28;20030;-69
2022/06/08 02:11:37;;;;;;;10.55;8.70;;;;;;;;;;5012934;28;20037;-68
2022/06/08 02:14:42;;;;;;;10.53;9.53;;;;;;;;;;5013131;28;20026;-68
2022/06/08 02:17:17;;;;;;;11.90;10.05;;;;;;;;;;4933626;29;20402;-69
2022/06/08 02:19:46;;;;;;;10.82;9.73;;;;;;;;;;4933295;29;20074;-68
2022/06/08 02:22:12;;;;;;;11.93;10.25;;;;;;;;;;4933484;29;20043;-69
2022/06/08 02:24:41;;;;;;;13.85;10.82;;;;;;;;;;4933218;29;20059;-68
2022/06/08 02:27:28;;;;;;;15.95;10.65;;;;;;;;;;4933420;29;20040;-68
2022/06/08 02:30:00;;;;;;;11.60;10.40;;;;;;;;;;4933381;29;20547;-68
2022/06/08 02:35:20;;;;;;;12.48;11.23;;;;;;;;;;4933516;28;20091;-68
2022/06/08 02:37:48;;;;;;;12.32;10.95;;;;;;;;;;4933383;29;20497;-69
2022/06/08 02:40:17;;;;;;;13.45;11.23;;;;;;;;;;4933189;28;20035;-68
2022/06/08 02:42:49;;;;;;;11.73;10.52;;;;;;;;;;4933142;29;20031;-68
2022/06/08 02:45:15;;;;;;;15.63;14.00;;;;;;;;;;4933313;29;20075;-69
2022/06/08 02:47:43;;;;;;;14.23;12.65;;;;;;;;;;4959314;28;20042;-68
2022/06/08 02:50:12;;;;;;;17.40;13.55;;;;;;;;;;4993314;28;20038;-68
2022/06/08 02:52:41;;;;;;;15.85;13.63;;;;;;;;;;4993163;28;20023;-68
2022/06/08 02:55:16;;;;;;;15.82;13.68;;;;;;;;;;4993085;28;20034;-68
2022/06/08 02:57:45;;;;;;;16.85;12.93;;;;;;;;;;4993116;28;20030;-68
2022/06/08 03:00:14;;;;;;;14.30;12.85;;;;;;;;;;4993059;28;20420;-68
2022/06/08 03:02:43;;;;;;;16.65;12.88;;;;;;;;;;4993326;28;20381;-68
2022/06/08 03:05:16;;;;;;;13.70;12.40;;;;;;;;;;4993119;28;20065;-69
2022/06/08 03:07:45;;;;;;;12.60;11.38;;;;;;;;;;4992936;28;20049;-68
2022/06/08 03:10:12;;;;;;;14.90;11.77;;;;;;;;;;4994912;28;20442;-68
2022/06/08 03:12:41;;;;;;;12.35;10.68;;;;;;;;;;4996672;28;20026;-68
2022/06/08 03:15:08;;;;;;;15.13;11.95;;;;;;;;;;4996485;28;20027;-68
2022/06/08 03:17:35;;;;;;;16.70;12.75;;;;;;;;;;4996421;28;20385;-68
2022/06/08 03:20:03;;;;;;;13.00;11.70;;;;;;;;;;4996480;28;20037;-69
2022/06/08 03:22:29;;;;;;;13.65;11.98;;;;;;;;;;4996601;28;20027;-68
2022/06/08 03:24:55;;;;;;;12.90;11.55;;;;;;;;;;5007345;28;20084;-68
2022/06/08 03:27:22;;;;;;;14.30;12.45;;;;;;;;;;5015949;28;20026;-68
2022/06/08 03:29:48;;;;;;;14.88;12.82;;;;;;;;;;5015854;28;20064;-68
2022/06/08 03:32:14;;;;;;;16.05;11.88;;;;;;;;;;5016204;28;20033;-68
2022/06/08 03:34:40;;;;;;;14.75;11.68;;;;;;;;;;5015841;28;20034;-68
2022/06/08 03:37:08;;;;;;;12.73;10.90;;;;;;;;;;5015800;28;20037;-68
2022/06/08 03:39:34;;;;;;;13.85;10.73;;;;;;;;;;5015606;28;20022;-69
2022/06/08 03:42:00;;;;;;;22.48;12.75;;;;;;;;;;5015610;28;20036;-69
2022/06/08 03:44:26;;;;;;;16.33;11.65;;;;;;;;;;5015852;28;20048;-69
2022/06/08 03:46:59;;;;;;;13.55;11.38;;;;;;;;;;5015793;28;20466;-69
2022/06/08 03:49:26;;;;;;;14.25;10.63;;;;;;;;;;5015767;28;20499;-69
2022/06/08 03:51:55;;;;;;;11.88;10.68;;;;;;;;;;5015666;28;20018;-69
2022/06/08 03:54:23;;;;;;;16.58;11.05;;;;;;;;;;5015736;28;20040;-68
2022/06/08 03:56:52;;;;;;;12.63;11.40;;;;;;;;;;5015467;28;20022;-68
2022/06/08 03:59:18;;;;;;;12.05;10.35;;;;;;;;;;5015086;28;20037;-68
2022/06/08 04:01:44;;;;;;;11.55;10.45;;;;;;;;;;5015544;28;20392;-69
2022/06/08 04:04:11;;;;;;;12.43;11.13;;;;;;;;;;5015369;28;20447;-68
2022/06/08 04:06:37;;;;;;;15.27;11.82;;;;;;;;;;5015183;28;20037;-69
2022/06/08 04:09:04;;;;;;;13.75;10.68;;;;;;;;;;5014946;28;20496;-68
2022/06/08 04:11:30;;;;;;;16.63;13.43;;;;;;;;;;5014962;28;20049;-68
2022/06/08 04:13:57;;;;;;;23.27;15.52;;;;;;;;;;5015106;28;20060;-68
2022/06/08 04:16:23;;;;;;;23.92;16.10;;;;;;;;;;5014920;28;20033;-68
2022/06/08 04:18:49;;;;;;;23.10;15.70;;;;;;;;;;5015083;28;20497;-68
2022/06/08 04:21:16;;;;;;;16.42;14.65;;;;;;;;;;5013964;28;20061;-68
2022/06/08 04:23:43;;;;;;;16.67;14.20;;;;;;;;;;5014356;28;20388;-68
2022/06/08 04:26:09;;;;;;;22.05;15.38;;;;;;;;;;5014819;28;20036;-68
2022/06/08 04:28:36;;;;;;;24.55;14.48;;;;;;;;;;5014740;28;20074;-68
2022/06/08 04:31:02;;;;;;;20.73;12.80;;;;;;;;;;5014762;28;20110;-68
2022/06/08 04:33:28;;;;;;;23.40;14.40;;;;;;;;;;5014700;28;20032;-69
2022/06/08 04:35:55;;;;;;;18.35;13.52;;;;;;;;;;5014433;28;20030;-69
2022/06/08 04:38:21;;;;;;;17.45;11.93;;;;;;;;;;5014427;28;20092;-69
2022/06/08 04:40:47;;;;;;;19.65;11.40;;;;;;;;;;5014535;28;20017;-69
2022/06/08 04:43:13;;;;;;;22.55;13.10;;;;;;;;;;5014517;28;20032;-68
2022/06/08 04:45:40;;;;;;;22.02;13.57;;;615.30;2432.00;;;;;;5014306;28;20030;-68
2022/06/08 04:48:06;;;;;;;15.20;11.95;;;615.30;2432.00;;;;;;5014136;28;20144;-68
2022/06/08 04:50:32;;;;;;;17.77;12.18;;;615.30;2432.00;;;;;;5014483;28;20032;-68
2022/06/08 04:52:58;;;;;;;19.30;11.20;;;615.30;2432.00;;;;;;5013972;28;20091;-68
2022/06/08 04:55:25;;;;;;;11.85;8.38;;;640.00;2432.00;;;;;;4996350;28;20451;-68
2022/06/08 04:57:51;;;;;;;26.77;8.82;;;640.00;2432.00;;;;;;5014166;28;20030;-68
2022/06/08 05:00:20;;;;;;;9.00;6.72;;;640.00;2432.00;;;;;;5013971;28;20168;-68
2022/06/08 05:02:50;;;;;;;17.17;7.07;;;615.30;2432.00;;;;;;5014083;28;20104;-68
2022/06/08 05:05:38;;;;;;;15.25;7.07;;;615.30;2432.00;;;;;;5014258;28;20021;-68
2022/06/08 05:08:06;;;;;;;8.85;6.38;;;640.00;2432.00;;;;;;5013555;28;20108;-68
2022/06/08 05:10:34;;;;;;;12.80;6.45;;;640.00;2432.00;;;;;;5013631;28;20538;-69
2022/06/08 05:13:01;;;;;;;7.88;6.15;;;640.00;2432.00;;;;;;5013754;28;20034;-69
2022/06/08 05:15:31;;;;;;;8.55;5.47;;;640.00;2432.00;;;;;;5013781;28;20025;-68
2022/06/08 05:17:58;;;;;;;6.70;5.00;;;640.00;2432.00;;;;;;5013916;28;20025;-68
2022/06/08 05:20:24;;;;;;;6.78;5.32;;;640.10;2432.00;;;;;;5013550;28;20601;-68
2022/06/08 05:22:52;;;;;;;23.83;6.53;;;640.10;2432.00;;;;;;5013525;28;20025;-68
2022/06/08 05:25:26;;;;;;;8.02;6.47;;;640.20;2432.00;;;;;;5013296;28;20073;-68
2022/06/08 05:27:52;;;;;;;8.60;5.43;;;640.30;2432.00;;;;;;5013666;28;20111;-68
2022/06/08 05:30:18;;;;;;;9.05;5.25;;;640.20;2432.00;;;;;;5013531;28;20476;-68
2022/06/08 05:32:44;;;;;;;7.80;6.22;;;;;;;;;;5013272;28;20064;-69
2022/06/08 05:35:11;;;;;;;7.32;5.30;;;;;;;;;;5013866;28;20072;-68
2022/06/08 05:37:37;;;;;;;7.53;5.70;;;640.40;2432.00;;;;;;5013530;28;20476;-69
2022/06/08 05:40:05;;;;;;;9.20;5.22;;;640.50;2432.00;;;;;;5013400;28;20071;-68
2022/06/08 05:42:32;;;;;;;11.13;5.30;;;640.40;2432.00;;;;;;5013670;28;20053;-68
2022/06/08 05:44:57;;;;;;;12.38;5.80;;;640.50;2432.00;;;;;;5013206;28;20038;-68
2022/06/08 05:47:25;;;;;;;13.98;6.28;;;640.40;2432.00;;;;;;5013825;28;20033;-68
2022/06/08 05:49:50;;;;;;;19.30;6.82;;;640.40;2432.00;;;;;;5013179;28;20029;-68
2022/06/08 05:52:17;;;;;;;17.10;6.25;;;640.50;2432.00;;;;;;5013347;28;20026;-68
2022/06/08 05:54:44;;;;;;;14.98;6.47;;;640.50;2432.00;;;;;;5013205;28;20022;-68
2022/06/08 05:57:10;;;;;;;19.40;6.32;;;640.60;2406.40;;;;;;5013159;28;20030;-68
2022/06/08 05:59:37;;;;;;;9.15;5.50;;;640.60;2406.40;;;;;;5013115;28;20037;-68
2022/06/08 06:02:05;;;;;;;14.48;6.57;;;640.60;2406.40;;;;;;5012937;28;20029;-68
2022/06/08 06:04:30;;;;;;;15.73;6.97;;;640.70;2406.40;;;;;;5013049;28;20041;-68
2022/06/08 06:06:56;;;;;;;20.42;7.50;;;;;;;;;;5013269;28;20380;-69
2022/06/08 06:09:23;;;;;;;8.43;6.18;;;;;;;;;;5012841;28;20502;-68
2022/06/08 06:11:50;;;;;;;18.15;6.28;;;;;;;;;;5012983;28;20037;-69
2022/06/08 06:14:16;;;;;;;7.95;5.40;;;;;;;;;;5012962;28;20480;-68
2022/06/08 06:16:43;;;;;;;15.00;6.55;;;;;;;;;;5013334;28;20033;-69
2022/06/08 06:19:09;;;;;;;9.20;5.55;;;;;;;;;;5012833;28;20022;-69
2022/06/08 06:21:35;;;;;;;9.15;5.68;;;;;;;;;;5013127;28;20029;-69
2022/06/08 06:24:02;;;;;;;8.60;6.22;;;;;;;;;;5012640;28;20045;-69
2022/06/08 06:26:29;;;;;;;17.17;7.28;;;;;;;;;;5013292;28;20416;-68
2022/06/08 06:28:56;;;;;;;11.13;5.55;;;;;;;;;;5012751;28;20113;-68
2022/06/08 06:31:24;;;;;;;14.10;5.50;;;;;;;;;;5012644;28;20021;-68
2022/06/08 06:33:50;;;;;;;13.65;5.28;;;;;;;;;;5012760;28;20168;-68
2022/06/08 06:36:16;;;;;;;12.52;6.22;;;;;;;;;;5012859;28;20033;-69
2022/06/08 06:38:42;;;;;;;15.70;6.25;;;;;;;;;;5012969;28;20053;-69
2022/06/08 06:41:09;;;;;;;10.02;5.70;;;;;;;;;;5012815;28;20048;-68
2022/06/08 06:43:35;;;;;;;20.33;7.38;;;;;;;;;;5013120;28;20030;-68
2022/06/08 06:46:03;;;;;;;14.77;7.53;;;;;;;;;;5016105;28;20463;-68
2022/06/08 06:48:29;;;;;;;13.45;8.02;;;;;;;;;;5016214;28;20044;-68
2022/06/08 06:50:55;;;;;;;11.13;9.55;;;;;;;;;;5016533;28;20025;-68
2022/06/08 06:53:21;;;;;;;14.27;11.13;;;;;;;;;;5016417;28;20033;-68
2022/06/08 06:55:47;;;;;;;16.52;12.65;;;;;;;;;;5016552;28;20487;-68
2022/06/08 06:58:13;;;;;;;19.98;13.05;;;;;;;;;;5016346;28;20026;-68
2022/06/08 07:00:39;;;;;;;15.40;13.82;;;;;;;;;;5016260;28;20029;-68
2022/06/08 07:03:05;;;;;;;16.00;14.30;;;;;;;;;;5016790;28;20026;-68
2022/06/08 07:05:33;;;;;;;16.73;13.07;;;;;;;;;;5016554;28;20030;-68
2022/06/08 07:08:00;;;;;;;15.10;11.77;;;;;;;;;;5016063;28;20053;-68
2022/06/08 07:10:26;;;;;;;12.55;9.63;;;;;;;;;;5016115;28;20494;-68
2022/06/08 07:12:53;;;;;;;12.80;9.25;;;;;;;;;;5016163;28;20386;-68
2022/06/08 07:15:20;;;;;;;14.13;8.85;;;;;;;;;;5016013;28;20549;-68
2022/06/08 07:17:46;;;;;;;14.88;8.73;;;;;;;;;;5016002;28;20388;-69
2022/06/08 07:20:13;;;;;;;11.73;8.63;;;;;;;;;;5015973;28;20029;-68
2022/06/08 07:22:40;;;;;;;17.75;9.38;;;;;;;;;;5015833;28;20096;-69
2022/06/08 07:25:06;;;;;;;33.08;10.48;;;;;;;;;;5015661;28;20053;-69
2022/06/08 07:27:33;;;;;;;19.10;8.88;;;;;;;;;;5015833;28;20022;-69
2022/06/08 07:29:59;;;;;;;12.43;8.07;;;;;;;;;;5015782;28;20046;-69
2022/06/08 07:32:25;;;;;;;11.77;7.10;;;;;;;;;;5015804;28;20416;-68
2022/06/08 07:34:51;;;;;;;13.63;7.35;;;;;;;;;;5013969;28;20061;-69
2022/06/08 07:37:17;;;;;;;9.75;7.40;;;;;;;;;;5015818;28;20469;-68
2022/06/08 07:39:43;;;;;;;9.35;7.15;;;;;;;;;;5015653;28;20037;-68
2022/06/08 07:42:09;;;;;;;11.65;7.60;;;;;;;;;;5015735;28;20120;-68
2022/06/08 07:44:35;;;;;;;16.27;7.43;;;;;;;;;;5015459;28;20484;-68
2022/06/08 07:47:01;;;;;;;8.55;6.90;;;;;;;;;;5015272;28;20042;-68
2022/06/08 07:49:36;;;;;;;11.70;6.50;;;;;;;;;;5015301;28;20033;-68
2022/06/08 07:52:05;;;;;;;46.45;10.13;;;;;;;;;;5015332;28;20026;-68
2022/06/08 07:54:31;;;;;;;14.50;6.50;;;;;;;;;;5015422;28;20026;-68
2022/06/08 07:56:58;;;;;;;12.43;6.25;;;;;;;;;;5015296;28;20018;-68
2022/06/08 07:59:25;;;;;;;10.15;5.40;;;;;;;;;;5015132;28;20032;-68
2022/06/08 08:01:52;;;;;;;13.43;5.55;;;;;;;;;;5015099;28;20022;-68
2022/06/08 08:04:18;;;;;;;7.43;4.80;;;;;;;;;;5014901;28;20034;-68
2022/06/08 08:06:44;;;;;;;20.85;5.97;;;;;;;;;;5015218;28;20061;-68
2022/06/08 08:09:17;;;;;;;5.65;4.80;;;;;;;;;;5015161;28;20038;-68
2022/06/08 08:11:44;;;;;;;8.32;5.00;;;;;;;;;;5015144;28;20018;-68
2022/06/08 08:14:10;;;;;;;13.55;6.20;;;;;;;;;;5013846;28;20052;-68
2022/06/08 08:16:37;;;;;;;8.15;5.57;;;;;;;;;;5015539;28;20018;-68
2022/06/08 08:19:03;;;;;;;9.57;5.30;;;;;;;;;;5014938;28;20034;-68
2022/06/08 08:21:32;;;;;;;6.95;5.88;;;;;;;;;;5014855;28;20026;-68
2022/06/08 08:23:58;;;;;;;9.85;5.70;;;;;;;;;;5014652;28;20119;-68
2022/06/08 08:26:24;;;;;;;5.00;4.45;;;;;;;;;;5014762;28;20021;-68
2022/06/08 08:28:50;;;;;;;6.43;4.93;;;;;;;;;;5014549;28;20065;-68
2022/06/08 08:31:17;;;;;;;6.30;5.10;;;;;;;;;;5014871;28;20022;-68
2022/06/08 08:33:43;;;;;;;7.70;4.57;;;;;;;;;;5014467;28;20030;-69
2022/06/08 08:36:09;;;;;;;7.97;4.97;;;;;;;;;;5014815;28;20065;-68
2022/06/08 08:38:35;;;;;;;14.00;7.95;;;;;;;;;;5014794;28;20124;-68
2022/06/08 08:41:02;;;;;;;4.90;4.40;;;;;;;;;;5013213;28;20357;-69
2022/06/08 08:43:34;;;;;;;16.33;4.57;;;;;;;;;;5014317;28;20026;-68
2022/06/08 08:46:26;;;;;;;8.63;4.22;;;;;;;;;;5014204;28;20101;-69
2022/06/08 08:49:04;;;;;;;4.07;3.60;;;;;;;;;;5014164;28;20048;-68
2022/06/08 08:51:38;;;;;;;4.72;3.53;;;;;;;;;;5014317;28;20107;-68
2022/06/08 08:54:10;;;;;;;10.43;4.20;;;;;;;;;;5014173;28;20076;-68
2022/06/08 08:56:38;;;;;;;5.25;4.18;;;;;;;;;;5014003;28;20492;-68
2022/06/08 08:59:15;;;;;;;9.05;4.35;;;;;;;;;;5014267;28;20049;-69
2022/06/08 09:01:42;;;;;;;18.52;6.43;;;;;;;;;;5014046;28;20022;-68
2022/06/08 09:04:26;;;;;;;7.78;4.10;;;;;;;;;;5014129;28;20096;-68
2022/06/08 09:06:53;;;;;;;11.75;3.58;;;;;;;;;;5013276;28;20096;-68
2022/06/08 09:09:21;;;;;;;10.60;5.20;;;;;;;;;;5013601;28;20080;-68
2022/06/08 09:11:47;;;;;;;13.75;6.15;;;;;;;;;;5013897;28;20076;-68
2022/06/08 09:14:23;;;;;;;8.50;4.45;;;;;;;;;;5013930;28;20026;-69
2022/06/08 09:16:54;;;;;;;5.95;4.57;;;;;;;;;;5013791;28;20061;-68
2022/06/08 09:19:31;;;;;;;6.63;3.92;;;;;;;;;;5014183;28;20342;-69
2022/06/08 09:22:09;;;;;;;4.95;3.47;;;;;;;;;;5013621;28;20080;-69
2022/06/08 09:24:49;;;;;;;19.63;5.70;;;;;;;;;;5013630;28;20046;-68
2022/06/08 09:27:24;;;;;;;14.27;5.15;;;;;;;;;;5013664;28;20030;-69
2022/06/08 09:29:56;;;;;;;7.97;4.70;;;;;;;;;;5013617;28;20034;-69
2022/06/08 09:32:27;;;;;;;9.95;5.05;;;;;;;;;;5013384;28;20026;-68
2022/06/08 09:34:54;;;;;;;21.00;5.20;;;;;;;;;;5013658;28;20105;-68
2022/06/08 09:37:23;;;;;;;24.20;6.13;;;;;;;;;;5013584;28;20026;-68
2022/06/08 09:39:49;;;;;;;68.13;10.32;;;;;;;;;;5013405;28;20033;-68
2022/06/08 09:42:25;;;;;;;6.50;4.25;;;;;;;;;;5013371;28;20022;-68
2022/06/08 09:44:59;;;;;;;9.70;5.93;;;;;;;;;;5013071;28;20079;-68
2022/06/08 09:53:06;;;;;;;6.57;4.57;;;;;;;;;;5013583;28;20080;-68
2022/06/08 09:55:55;;;;;;;9.60;4.72;;;;;;;;;;5013068;28;20109;-68
2022/06/08 09:58:32;;;;;;;6.65;3.95;;;;;;;;;;5011453;28;20118;-68
2022/06/08 10:00:58;;;;;;;14.55;5.20;;;;;;;;;;5013356;28;20380;-68
2022/06/08 10:03:47;;;;;;;19.60;6.18;;;;;;;;;;5012912;28;20026;-68
2022/06/08 10:06:19;;;;;;;17.13;6.20;;;;;;;;;;5012452;28;20057;-68
2022/06/08 10:08:58;;;;;;;9.05;4.75;;;;;;;;;;5013173;28;20042;-68
2022/06/08 10:11:44;;;;;;;10.23;4.60;;;;;;;;;;5013057;28;20441;-68
2022/06/08 10:14:12;;;;;;;15.75;6.03;;;;;;;;;;5013084;28;20097;-69
2022/06/08 10:16:40;;;;;;;11.98;5.00;;;;;;;;;;5011784;28;20376;-68
2022/06/08 10:19:11;;;;;;;10.55;5.85;;;;;;;;;;5013467;28;20030;-68
2022/06/08 10:21:41;;;;;;;7.78;5.47;;;;;;;;;;5017049;28;20037;-68
2022/06/08 10:24:19;;;;;;;10.35;5.65;;;;;;;;;;5016888;28;20053;-69
2022/06/08 10:26:47;;;;;;;7.82;6.68;;;;;;;;;;5016793;28;20065;-69
2022/06/08 10:29:32;;;;;;;42.38;8.60;;;;;;;;;;5016736;28;20045;-69
2022/06/08 10:32:17;;;;;;;19.15;5.60;;;;;;;;;;5016680;28;20034;-68
2022/06/08 10:34:44;;;;;;;8.48;5.10;;;;;;;;;;5016828;28;20032;-69
2022/06/08 10:37:16;;;;;;;15.27;4.85;;;;;;;;;;5016859;28;20036;-68
2022/06/08 10:39:43;;;;;;;20.50;6.53;;;;;;;;;;5016593;28;20428;-69
2022/06/08 10:44:58;;;;;;;11.48;6.10;;;;;;;;;;5016706;28;20037;-69
2022/06/08 10:47:27;;;;;;;8.40;5.45;;;;;;;;;;5016665;28;20026;-69
2022/06/08 10:50:13;;;;;;;12.35;6.35;;;;;;;;;;5016564;28;20030;-69
2022/06/08 10:52:42;;;;;;;7.93;6.60;;;;;;;;;;5002896;28;20037;-69
2022/06/08 10:55:14;;;;;;;11.85;9.50;;;;;;;;;;5016383;28;20388;-69
2022/06/08 10:57:49;;;;;;;10.68;6.35;;;;;;;;;;5016592;28;20392;-69
2022/06/08 11:00:15;;;;;;;13.30;6.97;;;;;;;;;;5015131;28;20032;-69
2022/06/08 11:02:43;;;;;;;11.00;6.10;;;;;;;;;;5016137;28;20484;-69
2022/06/08 11:05:17;;;;;;;68.47;13.57;;;;;;;;;;5016505;28;20038;-70
2022/06/08 11:07:59;;;;;;;10.57;6.40;;;;;;;;;;5016309;28;20077;-69
2022/06/08 11:10:48;;;;;;;29.35;8.68;;;;;;;;;;5016072;28;20044;-69
2022/06/08 11:13:30;;;;;;;8.43;6.82;;;;;;;;;;5014916;28;20022;-69
2022/06/08 11:15:58;;;;;;;8.88;7.85;;;;;;;;;;5015998;28;20034;-69
2022/06/08 11:18:34;;;;;;;19.48;7.70;;;;;;;;;;5014621;28;20046;-69
2022/06/08 11:21:03;;;;;;;14.18;7.78;;;;;;;;;;5015908;28;20026;-69
2022/06/08 11:23:32;;;;;;;10.38;7.63;;;;;;;;;;5015646;28;20472;-69
2022/06/08 11:26:07;;;;;;;17.63;7.90;;;;;;;;;;5016047;28;20050;-69
2022/06/08 11:28:36;;;;;;;13.25;9.02;;;;;;;;;;5015643;28;20033;-69
2022/06/08 11:31:02;;;;;;;15.57;10.05;;;;;;;;;;5015218;28;20098;-69
2022/06/08 11:33:48;;;;;;;10.50;7.60;;;;;;;;;;5015600;28;20080;-68
2022/06/08 11:36:22;;;;;;;8.30;7.50;;;;;;;;;;5015304;28;20038;-68
2022/06/08 11:38:49;;;;;;;17.98;9.20;;;;;;;;;;5015555;28;20476;-68
2022/06/08 11:41:21;;;;;;;11.45;8.35;;;;;;;;;;5015478;28;20088;-68
2022/06/08 11:43:48;;;;;;;14.73;9.95;;;;;;;;;;5015598;28;20026;-68
2022/06/08 11:46:24;;;;;;;17.83;10.23;;;;;;;;;;5015360;28;20069;-68
2022/06/08 11:48:52;;;;;;;25.85;10.60;;;;;;;;;;5015097;28;20088;-68
2022/06/08 11:51:34;;;;;;;34.50;10.32;;;;;;;;;;5015311;28;20121;-68
2022/06/08 11:54:15;;;;;;;18.38;9.32;;;;;;;;;;5014076;28;20029;-68
2022/06/08 11:56:51;;;;;;;12.30;8.55;;;;;;;;;;5015398;28;20026;-68
2022/06/08 11:59:19;;;;;;;14.45;9.15;;;;;;;;;;5014940;28;20037;-68
2022/06/08 12:01:51;;;;;;;13.15;8.30;;;;;;;;;;5015377;28;20021;-68
2022/06/08 12:04:21;;;;;;;22.17;9.77;;;;;;;;;;5015129;28;20025;-68
2022/06/08 12:06:48;;;;;;;12.50;7.75;;;;;;;;;;5015116;28;20033;-68
2022/06/08 12:09:20;;;;;;;11.30;7.53;;;;;;;;;;5015143;28;20030;-68
2022/06/08 12:11:52;;;;;;;8.55;6.03;;;717.20;1996.80;;;;;;5015190;28;20057;-68
2022/06/08 12:14:21;;;;;;;8.60;5.80;;;717.20;1996.80;;;;;;5015215;28;20168;-69
2022/06/08 12:16:52;;;;;;;10.63;7.10;;;;;;;;;;5015021;28;20022;-69
2022/06/08 12:19:20;;;;;;;12.40;7.25;;;;;;;;;;5014769;28;20026;-69
2022/06/08 12:21:48;;;;;;;7.90;7.05;;;;;;;;;;5014834;28;20028;-69
2022/06/08 12:24:14;;;;;;;9.00;7.10;;;;;;;;;;5014716;28;20076;-69
2022/06/08 12:26:43;;;;;;;12.30;6.47;;;;;;;;;;5014439;28;20038;-69
2022/06/08 12:29:28;;;;;;;21.30;8.38;;;;;;;;;;5013332;28;20034;-68
2022/06/08 12:32:14;;;;;;;8.27;6.72;;;;;;;;;;5014716;28;20040;-69
2022/06/08 12:34:42;;;;;;;10.88;7.60;;;;;;;;;;5014123;28;20028;-68
2022/06/08 12:37:26;;;;;;;9.90;8.30;;;;;;;;;;5014528;28;20116;-68
2022/06/08 12:39:57;;;;;;;9.00;8.10;;;;;;;;;;5014740;28;20040;-68
2022/06/08 12:42:23;;;;;;;;;;;;;;;;;;5014081;28;20476;-69
2022/06/08 12:44:53;;;;;;;6.45;5.85;;;;;;;;;;5014852;28;19984;-67
2022/06/08 12:47:20;;;;;;;7.30;6.45;;;;;;;;;;5014301;28;20033;-68
2022/06/08 12:49:55;;;;;;;12.27;6.20;;;;;;;;;;5014168;28;20037;-68
2022/06/08 12:52:25;;;;;;;8.45;6.40;;;;;;;;;;5014192;28;20112;-69
2022/06/08 12:54:52;;;;;;;14.23;7.03;;;;;;;;;;5014370;28;20029;-69
2022/06/08 12:57:22;;;;;;;11.95;8.18;;;;;;;;;;5014107;28;20022;-69
2022/06/08 12:59:50;;;;;;;8.02;6.80;;;;;;;;;;5014154;28;20084;-69
2022/06/08 13:02:18;;;;;;;8.90;5.25;;;;;;;;;;5013840;28;20547;-69
2022/06/08 13:04:44;;;;;;;6.88;6.07;;;;;;;;;;5014026;28;20022;-68
2022/06/08 13:07:12;;;;;;;8.52;6.10;;;;;;;;;;5014121;28;20053;-68
2022/06/08 13:09:38;;;;;;;9.95;6.20;;;;;;;;;;5013790;28;20030;-68
2022/06/08 13:12:05;;;;;;;7.25;5.80;;;;;;;;;;5013856;28;20022;-69
2022/06/08 13:14:33;;;;;;;7.30;5.88;;;;;;;;;;5013908;28;20028;-69
2022/06/08 13:17:00;;;;;;;14.23;6.40;;;;;;;;;;5013644;28;20030;-68
2022/06/08 13:19:27;;;;;;;15.13;6.85;;;;;;;;;;5011772;28;20185;-69
2022/06/08 13:21:53;;;;;;;13.30;6.53;;;;;;;;;;5013699;28;20473;-69
2022/06/08 13:24:19;;;;;;;7.32;5.60;;;;;;;;;;5013649;28;20060;-69
2022/06/08 13:26:46;;;;;;;11.25;5.95;;;;;;;;;;5013796;28;20033;-69
2022/06/08 13:29:13;;;;;;;12.20;5.78;;;;;;;;;;5013522;28;20041;-69
2022/06/08 13:31:39;;;;;;;5.93;4.70;;;;;;;;;;5013430;28;20105;-68
2022/06/08 13:34:06;;;;;;;6.57;5.07;;;;;;;;;;5013438;28;20081;-68
2022/06/08 13:36:32;;;;;;;10.38;5.68;;;;;;;;;;5013618;28;20402;-69
2022/06/08 13:39:10;;;;;;;11.50;6.25;;;;;;;;;;5013709;28;20021;-69
2022/06/08 13:41:39;;;;;;;12.40;6.20;;;;;;;;;;5013586;28;20041;-69
2022/06/08 13:44:25;;;;;;;6.45;5.45;;;;;;;;;;5013335;28;20084;-68
2022/06/08 13:46:53;;;;;;;11.88;6.05;;;;;;;;;;5013533;28;20432;-69
2022/06/08 13:49:19;;;;;;;18.55;9.40;;;;;;;;;;5013067;28;20033;-68
2022/06/08 13:51:45;;;;;;;9.00;6.50;;;;;;;;;;5013262;28;20026;-68
2022/06/08 13:54:18;;;;;;;12.80;6.80;;;;;;;;;;5012998;28;20109;-68
2022/06/08 13:56:44;;;;;;;7.63;6.35;;;;;;;;;;5013165;28;20406;-69
2022/06/08 13:59:11;;;;;;;9.18;6.57;;;;;;;;;;5012880;28;20026;-68
2022/06/08 14:01:38;;;;;;;15.55;6.47;;;;;;;;;;5013201;28;20022;-69
2022/06/08 14:04:11;;;;;;;13.07;6.60;;;;;;;;;;5013090;28;20065;-69
2022/06/08 14:14:52;;;;;;;14.35;6.65;;;;;;;;;;5013267;28;20096;-68
2022/06/08 14:17:19;;;;;;;10.65;5.72;;;;;;;;;;5012975;28;20503;-70
2022/06/08 14:19:48;;;;;;;8.88;6.15;;;;;;;;;;5012884;28;20061;-69
2022/06/08 14:22:18;;;;;;;97.22;15.65;;;;;;;;;;5012747;28;20026;-68
2022/06/08 14:24:50;;;;;;;10.05;5.70;;;;;;;;;;5012788;28;20407;-68
2022/06/08 14:27:17;;;;;;;8.35;5.97;;;;;;;;;;5012803;28;20118;-68
2022/06/08 14:29:44;;;;;;;10.45;6.32;;;;;;;;;;5012705;28;20042;-69
2022/06/08 14:32:17;;;;;;;13.75;6.60;;;;;;;;;;5012957;28;20026;-69
2022/06/08 14:34:45;;;;;;;9.32;6.18;;;;;;;;;;5012636;28;20018;-68
2022/06/08 14:37:11;;;;;;;20.98;10.20;;;;;;;;;;5012739;28;20038;-68
2022/06/08 14:39:39;;;;;;;21.55;8.10;;;;;;;;;;5012907;28;20034;-69
2022/06/08 14:42:06;;;;;;;7.88;6.25;;;;;;;;;;5012798;28;20018;-69
2022/06/08 14:44:32;;;;;;;15.02;7.68;;;;;;;;;;5012796;28;20033;-68
2022/06/08 14:47:03;;;;;;;9.48;6.03;;;;;;;;;;5012620;28;20551;-69
2022/06/08 14:49:31;;;;;;;20.58;7.65;;;;;;;;;;5012426;28;20046;-69